sensor_id;sensor_type;location;lat;lon;timestamp;temperature;humidity
37050;DHT22;22958;51.232;6.826;2023-03-05T00:00:42;5.10;99.90
37050;DHT22;22958;51.232;6.826;2023-03-05T00:03:08;5.10;99.90
37050;DHT22;22958;51.232;6.826;2023-03-05T00:05:33;5.00;99.90
37050;DHT22;22958;51.232;6.826;2023-03-05T00:07:59;5.00;99.90
37050;DHT22;22958;51.232;6.826;2023-03-05T00:10:25;5.00;99.90
37050;DHT22;22958;51.232;6.826;2023-03-05T00:12:50;5.00;99.90
37050;DHT22;22958;51.232;6.826;2023-03-05T00:15:16;5.00;99.90
37050;DHT22;22958;51.232;6.826;2023-03-05T00:17:41;5.00;99.90
37050;DHT22;22958;51.232;6.826;2023-03-05T00:20:07;5.00;99.90
37050;DHT22;22958;51.232;6.826;2023-03-05T00:22:34;5.00;99.90
37050;DHT22;22958;51.232;6.826;2023-03-05T00:24:59;5.00;99.90
37050;DHT22;22958;51.232;6.826;2023-03-05T00:27:25;5.00;99.90
37050;DHT22;22958;51.232;6.826;2023-03-05T00:29:50;4.90;99.90
37050;DHT22;22958;51.232;6.826;2023-03-05T00:32:16;4.90;99.90
37050;DHT22;22958;51.232;6.826;2023-03-05T00:34:41;4.90;99.90
37050;DHT22;22958;51.232;6.826;2023-03-05T00:37:07;4.90;99.90
37050;DHT22;22958;51.232;6.826;2023-03-05T00:39:32;4.90;99.90
37050;DHT22;22958;51.232;6.826;2023-03-05T00:41:58;4.90;99.90
37050;DHT22;22958;51.232;6.826;2023-03-05T00:44:23;4.90;99.90
37050;DHT22;22958;51.232;6.826;2023-03-05T00:46:49;4.90;99.90
37050;DHT22;22958;51.232;6.826;2023-03-05T00:49:15;4.80;99.90
37050;DHT22;22958;51.232;6.826;2023-03-05T00:51:41;4.80;99.90
37050;DHT22;22958;51.232;6.826;2023-03-05T00:54:06;4.80;99.90
37050;DHT22;22958;51.232;6.826;2023-03-05T00:56:32;4.90;99.90
37050;DHT22;22958;51.232;6.826;2023-03-05T00:58:58;4.80;99.90
37050;DHT22;22958;51.232;6.826;2023-03-05T01:01:23;4.80;99.90
37050;DHT22;22958;51.232;6.826;2023-03-05T01:03:49;4.80;99.90
37050;DHT22;22958;51.232;6.826;2023-03-05T01:06:15;4.80;99.90
37050;DHT22;22958;51.232;6.826;2023-03-05T01:08:42;4.80;99.90
37050;DHT22;22958;51.232;6.826;2023-03-05T01:11:09;4.80;99.90
37050;DHT22;22958;51.232;6.826;2023-03-05T01:13:35;4.80;99.90
37050;DHT22;22958;51.232;6.826;2023-03-05T01:16:01;4.80;99.90
37050;DHT22;22958;51.232;6.826;2023-03-05T01:18:27;4.80;99.90
37050;DHT22;22958;51.232;6.826;2023-03-05T01:20:53;4.80;99.90
37050;DHT22;22958;51.232;6.826;2023-03-05T01:23:18;4.80;99.90
37050;DHT22;22958;51.232;6.826;2023-03-05T01:25:44;4.70;99.90
37050;DHT22;22958;51.232;6.826;2023-03-05T01:28:10;4.80;99.90
37050;DHT22;22958;51.232;6.826;2023-03-05T01:30:35;4.70;99.90
37050;DHT22;22958;51.232;6.826;2023-03-05T01:33:01;4.70;99.90
37050;DHT22;22958;51.232;6.826;2023-03-05T01:35:28;4.70;99.90
37050;DHT22;22958;51.232;6.826;2023-03-05T01:37:54;4.70;99.90
37050;DHT22;22958;51.232;6.826;2023-03-05T01:40:23;4.70;99.90
37050;DHT22;22958;51.232;6.826;2023-03-05T01:43:38;4.70;99.90
37050;DHT22;22958;51.232;6.826;2023-03-05T01:48:51;4.60;99.90
37050;DHT22;22958;51.232;6.826;2023-03-05T01:51:19;4.70;99.90
37050;DHT22;22958;51.232;6.826;2023-03-05T01:53:47;4.60;99.90
37050;DHT22;22958;51.232;6.826;2023-03-05T01:56:13;4.70;99.90
37050;DHT22;22958;51.232;6.826;2023-03-05T01:58:40;4.70;99.90
37050;DHT22;22958;51.232;6.826;2023-03-05T02:01:05;4.70;99.90
37050;DHT22;22958;51.232;6.826;2023-03-05T02:03:32;4.60;99.90
37050;DHT22;22958;51.232;6.826;2023-03-05T02:05:58;4.60;99.90
37050;DHT22;22958;51.232;6.826;2023-03-05T02:08:24;4.60;99.90
37050;DHT22;22958;51.232;6.826;2023-03-05T02:10:54;4.60;99.90
37050;DHT22;22958;51.232;6.826;2023-03-05T02:13:24;4.60;99.90
37050;DHT22;22958;51.232;6.826;2023-03-05T02:15:51;4.60;99.90
37050;DHT22;22958;51.232;6.826;2023-03-05T02:18:18;4.60;99.90
37050;DHT22;22958;51.232;6.826;2023-03-05T02:23:33;4.60;99.90
37050;DHT22;22958;51.232;6.826;2023-03-05T02:26:02;4.50;99.90
37050;DHT22;22958;51.232;6.826;2023-03-05T02:28:34;4.50;99.90
37050;DHT22;22958;51.232;6.826;2023-03-05T02:31:09;4.50;99.90
37050;DHT22;22958;51.232;6.826;2023-03-05T02:33:35;4.60;99.90
37050;DHT22;22958;51.232;6.826;2023-03-05T02:36:01;4.60;99.90
37050;DHT22;22958;51.232;6.826;2023-03-05T02:38:26;4.60;99.90
37050;DHT22;22958;51.232;6.826;2023-03-05T02:40:52;4.60;99.90
37050;DHT22;22958;51.232;6.826;2023-03-05T02:43:17;4.60;99.90
37050;DHT22;22958;51.232;6.826;2023-03-05T02:45:43;4.50;99.90
37050;DHT22;22958;51.232;6.826;2023-03-05T02:48:08;4.60;99.90
37050;DHT22;22958;51.232;6.826;2023-03-05T02:50:34;4.50;99.90
37050;DHT22;22958;51.232;6.826;2023-03-05T02:53:00;4.50;99.90
37050;DHT22;22958;51.232;6.826;2023-03-05T02:55:26;4.50;99.90
37050;DHT22;22958;51.232;6.826;2023-03-05T02:57:51;4.50;99.90
37050;DHT22;22958;51.232;6.826;2023-03-05T03:00:17;4.50;99.90
37050;DHT22;22958;51.232;6.826;2023-03-05T03:02:43;4.50;99.90
37050;DHT22;22958;51.232;6.826;2023-03-05T03:05:08;4.50;99.90
37050;DHT22;22958;51.232;6.826;2023-03-05T03:07:34;4.50;99.90
37050;DHT22;22958;51.232;6.826;2023-03-05T03:10:01;4.50;99.90
37050;DHT22;22958;51.232;6.826;2023-03-05T03:12:27;4.50;99.90
37050;DHT22;22958;51.232;6.826;2023-03-05T03:14:52;4.50;99.90
37050;DHT22;22958;51.232;6.826;2023-03-05T03:17:18;4.50;99.90
37050;DHT22;22958;51.232;6.826;2023-03-05T03:19:44;4.40;99.90
37050;DHT22;22958;51.232;6.826;2023-03-05T03:22:12;4.50;99.90
37050;DHT22;22958;51.232;6.826;2023-03-05T03:24:39;4.50;99.90
37050;DHT22;22958;51.232;6.826;2023-03-05T03:27:05;4.50;99.90
37050;DHT22;22958;51.232;6.826;2023-03-05T03:29:31;4.50;99.90
37050;DHT22;22958;51.232;6.826;2023-03-05T03:31:57;4.40;99.90
37050;DHT22;22958;51.232;6.826;2023-03-05T03:34:23;4.30;99.90
37050;DHT22;22958;51.232;6.826;2023-03-05T03:36:49;4.30;99.90
37050;DHT22;22958;51.232;6.826;2023-03-05T03:39:16;4.30;99.90
37050;DHT22;22958;51.232;6.826;2023-03-05T03:41:43;4.30;99.90
37050;DHT22;22958;51.232;6.826;2023-03-05T03:44:09;4.30;99.90
37050;DHT22;22958;51.232;6.826;2023-03-05T03:46:36;4.30;99.90
37050;DHT22;22958;51.232;6.826;2023-03-05T03:49:02;4.30;99.90
37050;DHT22;22958;51.232;6.826;2023-03-05T03:51:28;4.30;99.90
37050;DHT22;22958;51.232;6.826;2023-03-05T03:53:53;4.40;99.90
37050;DHT22;22958;51.232;6.826;2023-03-05T03:56:19;4.40;99.90
37050;DHT22;22958;51.232;6.826;2023-03-05T03:58:45;4.40;99.90
37050;DHT22;22958;51.232;6.826;2023-03-05T04:01:10;4.30;99.90
37050;DHT22;22958;51.232;6.826;2023-03-05T04:03:36;4.20;99.90
37050;DHT22;22958;51.232;6.826;2023-03-05T04:06:01;4.20;99.90
37050;DHT22;22958;51.232;6.826;2023-03-05T04:08:27;4.20;99.90
37050;DHT22;22958;51.232;6.826;2023-03-05T04:10:52;4.20;99.90
37050;DHT22;22958;51.232;6.826;2023-03-05T04:13:18;4.20;99.90
37050;DHT22;22958;51.232;6.826;2023-03-05T04:15:43;4.20;99.90
37050;DHT22;22958;51.232;6.826;2023-03-05T04:18:10;4.10;99.90
37050;DHT22;22958;51.232;6.826;2023-03-05T04:20:35;4.20;99.90
37050;DHT22;22958;51.232;6.826;2023-03-05T04:23:01;4.10;99.90
37050;DHT22;22958;51.232;6.826;2023-03-05T04:25:26;4.20;99.90
37050;DHT22;22958;51.232;6.826;2023-03-05T04:27:52;4.10;99.90
37050;DHT22;22958;51.232;6.826;2023-03-05T04:30:18;4.10;99.90
37050;DHT22;22958;51.232;6.826;2023-03-05T04:32:43;4.10;99.90
37050;DHT22;22958;51.232;6.826;2023-03-05T04:35:09;4.20;99.90
37050;DHT22;22958;51.232;6.826;2023-03-05T04:37:34;4.20;99.90
37050;DHT22;22958;51.232;6.826;2023-03-05T04:40:00;4.20;99.90
37050;DHT22;22958;51.232;6.826;2023-03-05T04:42:26;4.20;99.90
37050;DHT22;22958;51.232;6.826;2023-03-05T04:44:51;4.10;99.90
37050;DHT22;22958;51.232;6.826;2023-03-05T04:47:17;4.20;99.90
37050;DHT22;22958;51.232;6.826;2023-03-05T04:49:43;4.10;99.90
37050;DHT22;22958;51.232;6.826;2023-03-05T04:52:11;4.10;99.90
37050;DHT22;22958;51.232;6.826;2023-03-05T04:54:37;4.10;99.90
37050;DHT22;22958;51.232;6.826;2023-03-05T04:57:02;4.10;99.90
37050;DHT22;22958;51.232;6.826;2023-03-05T04:59:28;4.10;99.90
37050;DHT22;22958;51.232;6.826;2023-03-05T05:01:54;4.10;99.90
37050;DHT22;22958;51.232;6.826;2023-03-05T05:04:20;4.10;99.90
37050;DHT22;22958;51.232;6.826;2023-03-05T05:06:45;4.10;99.90
37050;DHT22;22958;51.232;6.826;2023-03-05T05:09:11;4.10;99.90
37050;DHT22;22958;51.232;6.826;2023-03-05T05:11:36;4.10;99.90
37050;DHT22;22958;51.232;6.826;2023-03-05T05:14:02;4.20;99.90
37050;DHT22;22958;51.232;6.826;2023-03-05T05:16:28;4.30;99.90
37050;DHT22;22958;51.232;6.826;2023-03-05T05:18:53;4.20;99.90
37050;DHT22;22958;51.232;6.826;2023-03-05T05:21:19;4.20;99.90
37050;DHT22;22958;51.232;6.826;2023-03-05T05:23:45;4.30;99.90
37050;DHT22;22958;51.232;6.826;2023-03-05T05:26:11;4.30;99.90
37050;DHT22;22958;51.232;6.826;2023-03-05T05:28:41;4.30;99.90
37050;DHT22;22958;51.232;6.826;2023-03-05T05:31:13;4.20;99.90
37050;DHT22;22958;51.232;6.826;2023-03-05T05:33:39;4.20;99.90
37050;DHT22;22958;51.232;6.826;2023-03-05T05:36:06;4.20;99.90
37050;DHT22;22958;51.232;6.826;2023-03-05T05:38:32;4.20;99.90
37050;DHT22;22958;51.232;6.826;2023-03-05T05:41:07;4.30;99.90
37050;DHT22;22958;51.232;6.826;2023-03-05T05:43:32;4.20;99.90
37050;DHT22;22958;51.232;6.826;2023-03-05T05:46:00;4.20;99.90
37050;DHT22;22958;51.232;6.826;2023-03-05T05:48:28;4.20;99.90
37050;DHT22;22958;51.232;6.826;2023-03-05T05:50:54;4.20;99.90
37050;DHT22;22958;51.232;6.826;2023-03-05T05:53:20;4.10;99.90
37050;DHT22;22958;51.232;6.826;2023-03-05T05:55:45;4.10;99.90
37050;DHT22;22958;51.232;6.826;2023-03-05T05:58:11;4.10;99.90
37050;DHT22;22958;51.232;6.826;2023-03-05T06:00:36;4.20;99.90
37050;DHT22;22958;51.232;6.826;2023-03-05T06:03:02;4.10;99.90
37050;DHT22;22958;51.232;6.826;2023-03-05T06:05:28;4.20;99.90
37050;DHT22;22958;51.232;6.826;2023-03-05T06:07:54;4.10;99.90
37050;DHT22;22958;51.232;6.826;2023-03-05T06:10:20;4.10;99.90
37050;DHT22;22958;51.232;6.826;2023-03-05T06:12:45;4.10;99.90
37050;DHT22;22958;51.232;6.826;2023-03-05T06:15:11;4.10;99.90
37050;DHT22;22958;51.232;6.826;2023-03-05T06:17:36;4.10;99.90
37050;DHT22;22958;51.232;6.826;2023-03-05T06:20:03;4.10;99.90
37050;DHT22;22958;51.232;6.826;2023-03-05T06:22:29;4.10;99.90
37050;DHT22;22958;51.232;6.826;2023-03-05T06:24:54;4.10;99.90
37050;DHT22;22958;51.232;6.826;2023-03-05T06:27:20;4.10;99.90
37050;DHT22;22958;51.232;6.826;2023-03-05T06:29:46;4.10;99.90
37050;DHT22;22958;51.232;6.826;2023-03-05T06:32:11;4.10;99.90
37050;DHT22;22958;51.232;6.826;2023-03-05T06:34:37;4.10;99.90
37050;DHT22;22958;51.232;6.826;2023-03-05T06:37:02;4.10;99.90
37050;DHT22;22958;51.232;6.826;2023-03-05T06:39:28;4.20;99.90
37050;DHT22;22958;51.232;6.826;2023-03-05T06:41:55;4.20;99.90
37050;DHT22;22958;51.232;6.826;2023-03-05T06:44:21;4.20;99.90
37050;DHT22;22958;51.232;6.826;2023-03-05T06:46:46;4.20;99.90
37050;DHT22;22958;51.232;6.826;2023-03-05T06:49:12;4.20;99.90
37050;DHT22;22958;51.232;6.826;2023-03-05T06:51:39;4.40;99.90
37050;DHT22;22958;51.232;6.826;2023-03-05T06:54:10;4.30;99.90
37050;DHT22;22958;51.232;6.826;2023-03-05T06:56:38;4.30;99.90
37050;DHT22;22958;51.232;6.826;2023-03-05T06:59:05;4.30;99.90
37050;DHT22;22958;51.232;6.826;2023-03-05T07:01:31;4.40;99.90
37050;DHT22;22958;51.232;6.826;2023-03-05T07:03:56;4.50;99.90
37050;DHT22;22958;51.232;6.826;2023-03-05T07:06:29;4.60;99.90
37050;DHT22;22958;51.232;6.826;2023-03-05T07:08:56;4.50;99.90
37050;DHT22;22958;51.232;6.826;2023-03-05T07:11:23;4.50;99.90
37050;DHT22;22958;51.232;6.826;2023-03-05T07:13:49;4.50;99.90
37050;DHT22;22958;51.232;6.826;2023-03-05T07:16:21;4.40;99.90
37050;DHT22;22958;51.232;6.826;2023-03-05T07:18:47;4.40;99.90
37050;DHT22;22958;51.232;6.826;2023-03-05T07:23:43;4.50;99.90
37050;DHT22;22958;51.232;6.826;2023-03-05T07:26:10;4.50;99.90
37050;DHT22;22958;51.232;6.826;2023-03-05T07:28:35;4.50;99.90
37050;DHT22;22958;51.232;6.826;2023-03-05T07:31:04;4.50;99.90
37050;DHT22;22958;51.232;6.826;2023-03-05T07:33:30;4.50;99.90
37050;DHT22;22958;51.232;6.826;2023-03-05T07:35:56;4.50;99.90
37050;DHT22;22958;51.232;6.826;2023-03-05T07:38:22;4.60;99.90
37050;DHT22;22958;51.232;6.826;2023-03-05T07:40:49;4.60;99.90
37050;DHT22;22958;51.232;6.826;2023-03-05T07:43:14;4.60;99.90
37050;DHT22;22958;51.232;6.826;2023-03-05T07:45:41;4.50;99.90
37050;DHT22;22958;51.232;6.826;2023-03-05T07:48:08;4.50;99.90
37050;DHT22;22958;51.232;6.826;2023-03-05T07:50:36;4.50;99.90
37050;DHT22;22958;51.232;6.826;2023-03-05T07:53:02;4.60;99.90
37050;DHT22;22958;51.232;6.826;2023-03-05T07:55:27;4.70;99.90
37050;DHT22;22958;51.232;6.826;2023-03-05T07:57:53;4.70;99.90
37050;DHT22;22958;51.232;6.826;2023-03-05T08:00:19;4.90;99.90
37050;DHT22;22958;51.232;6.826;2023-03-05T08:02:44;4.80;99.90
37050;DHT22;22958;51.232;6.826;2023-03-05T08:05:10;4.90;99.90
37050;DHT22;22958;51.232;6.826;2023-03-05T08:07:36;5.00;99.90
37050;DHT22;22958;51.232;6.826;2023-03-05T08:10:01;4.90;99.90
37050;DHT22;22958;51.232;6.826;2023-03-05T08:12:28;4.70;99.90
37050;DHT22;22958;51.232;6.826;2023-03-05T08:14:54;4.70;99.90
37050;DHT22;22958;51.232;6.826;2023-03-05T08:17:19;4.90;99.90
37050;DHT22;22958;51.232;6.826;2023-03-05T08:19:45;4.90;99.90
37050;DHT22;22958;51.232;6.826;2023-03-05T08:22:10;4.90;99.90
37050;DHT22;22958;51.232;6.826;2023-03-05T08:24:36;4.80;99.90
37050;DHT22;22958;51.232;6.826;2023-03-05T08:27:01;4.90;99.90
37050;DHT22;22958;51.232;6.826;2023-03-05T08:29:27;4.80;99.90
37050;DHT22;22958;51.232;6.826;2023-03-05T08:31:53;4.80;99.90
37050;DHT22;22958;51.232;6.826;2023-03-05T08:34:19;4.90;99.90
37050;DHT22;22958;51.232;6.826;2023-03-05T08:36:45;5.00;99.90
37050;DHT22;22958;51.232;6.826;2023-03-05T08:39:11;5.20;99.90
37050;DHT22;22958;51.232;6.826;2023-03-05T08:41:37;5.10;99.90
37050;DHT22;22958;51.232;6.826;2023-03-05T08:44:02;5.20;99.90
37050;DHT22;22958;51.232;6.826;2023-03-05T08:46:28;4.90;99.90
37050;DHT22;22958;51.232;6.826;2023-03-05T08:48:54;4.80;99.90
37050;DHT22;22958;51.232;6.826;2023-03-05T08:51:22;4.90;99.90
37050;DHT22;22958;51.232;6.826;2023-03-05T08:53:52;4.80;99.90
37050;DHT22;22958;51.232;6.826;2023-03-05T08:56:18;4.80;99.90
37050;DHT22;22958;51.232;6.826;2023-03-05T08:58:44;4.70;99.90
37050;DHT22;22958;51.232;6.826;2023-03-05T09:01:12;4.80;99.90
37050;DHT22;22958;51.232;6.826;2023-03-05T09:03:38;4.80;99.90
37050;DHT22;22958;51.232;6.826;2023-03-05T09:06:07;4.80;99.90
37050;DHT22;22958;51.232;6.826;2023-03-05T09:08:34;4.70;99.90
37050;DHT22;22958;51.232;6.826;2023-03-05T09:11:04;4.70;99.90
37050;DHT22;22958;51.232;6.826;2023-03-05T09:13:30;4.70;99.90
37050;DHT22;22958;51.232;6.826;2023-03-05T09:15:58;4.70;99.90
37050;DHT22;22958;51.232;6.826;2023-03-05T09:18:24;4.70;99.90
37050;DHT22;22958;51.232;6.826;2023-03-05T09:20:50;4.80;99.90
37050;DHT22;22958;51.232;6.826;2023-03-05T09:23:15;4.80;99.90
37050;DHT22;22958;51.232;6.826;2023-03-05T09:25:41;4.80;99.90
37050;DHT22;22958;51.232;6.826;2023-03-05T09:28:07;4.80;99.90
37050;DHT22;22958;51.232;6.826;2023-03-05T09:30:33;4.70;99.90
37050;DHT22;22958;51.232;6.826;2023-03-05T09:33:02;4.60;99.90
37050;DHT22;22958;51.232;6.826;2023-03-05T09:35:28;4.70;99.90
37050;DHT22;22958;51.232;6.826;2023-03-05T09:37:53;4.70;99.90
37050;DHT22;22958;51.232;6.826;2023-03-05T09:40:20;4.80;99.90
37050;DHT22;22958;51.232;6.826;2023-03-05T09:45:46;4.80;99.90
37050;DHT22;22958;51.232;6.826;2023-03-05T09:48:25;5.10;99.90
37050;DHT22;22958;51.232;6.826;2023-03-05T09:51:00;5.40;99.90
37050;DHT22;22958;51.232;6.826;2023-03-05T09:53:58;5.50;99.90
37050;DHT22;22958;51.232;6.826;2023-03-05T09:56:31;5.50;99.90
37050;DHT22;22958;51.232;6.826;2023-03-05T09:59:03;5.40;99.90
37050;DHT22;22958;51.232;6.826;2023-03-05T10:01:38;5.30;99.90
37050;DHT22;22958;51.232;6.826;2023-03-05T10:04:12;5.30;99.90
37050;DHT22;22958;51.232;6.826;2023-03-05T10:06:49;5.20;99.90
37050;DHT22;22958;51.232;6.826;2023-03-05T10:14:42;5.30;99.90
37050;DHT22;22958;51.232;6.826;2023-03-05T10:17:38;5.40;99.90
37050;DHT22;22958;51.232;6.826;2023-03-05T10:20:19;5.30;99.90
37050;DHT22;22958;51.232;6.826;2023-03-05T10:23:10;5.20;99.90
37050;DHT22;22958;51.232;6.826;2023-03-05T10:25:55;5.10;99.90
37050;DHT22;22958;51.232;6.826;2023-03-05T10:39:44;5.80;99.90
37050;DHT22;22958;51.232;6.826;2023-03-05T10:42:36;6.00;99.90
37050;DHT22;22958;51.232;6.826;2023-03-05T10:48:10;6.30;99.90
37050;DHT22;22958;51.232;6.826;2023-03-05T10:50:50;6.30;99.90
37050;DHT22;22958;51.232;6.826;2023-03-05T10:53:31;5.70;99.90
37050;DHT22;22958;51.232;6.826;2023-03-05T10:56:05;5.70;99.90
37050;DHT22;22958;51.232;6.826;2023-03-05T10:58:31;5.70;99.90
37050;DHT22;22958;51.232;6.826;2023-03-05T11:01:04;5.70;99.90
37050;DHT22;22958;51.232;6.826;2023-03-05T11:06:15;5.90;99.90
37050;DHT22;22958;51.232;6.826;2023-03-05T11:08:50;5.80;99.90
37050;DHT22;22958;51.232;6.826;2023-03-05T11:11:18;5.80;99.90
37050;DHT22;22958;51.232;6.826;2023-03-05T11:16:24;6.60;99.90
37050;DHT22;22958;51.232;6.826;2023-03-05T11:21:35;6.70;99.90
37050;DHT22;22958;51.232;6.826;2023-03-05T11:24:08;6.80;99.90
37050;DHT22;22958;51.232;6.826;2023-03-05T11:26:34;6.70;99.90
37050;DHT22;22958;51.232;6.826;2023-03-05T11:29:01;6.80;99.90
37050;DHT22;22958;51.232;6.826;2023-03-05T11:31:31;7.10;99.90
37050;DHT22;22958;51.232;6.826;2023-03-05T11:34:19;7.20;99.90
37050;DHT22;22958;51.232;6.826;2023-03-05T11:39:19;6.30;99.90
37050;DHT22;22958;51.232;6.826;2023-03-05T11:41:53;6.10;99.90
37050;DHT22;22958;51.232;6.826;2023-03-05T11:44:22;6.10;99.90
37050;DHT22;22958;51.232;6.826;2023-03-05T11:50:23;6.10;99.90
37050;DHT22;22958;51.232;6.826;2023-03-05T11:52:56;6.00;99.90
37050;DHT22;22958;51.232;6.826;2023-03-05T12:00:56;6.10;99.90
37050;DHT22;22958;51.232;6.826;2023-03-05T12:03:25;6.10;99.90
37050;DHT22;22958;51.232;6.826;2023-03-05T12:05:57;6.30;99.90
37050;DHT22;22958;51.232;6.826;2023-03-05T12:08:28;6.40;99.90
37050;DHT22;22958;51.232;6.826;2023-03-05T12:10:57;6.50;99.90
37050;DHT22;22958;51.232;6.826;2023-03-05T12:13:34;6.40;99.90
37050;DHT22;22958;51.232;6.826;2023-03-05T12:16:05;6.80;99.90
37050;DHT22;22958;51.232;6.826;2023-03-05T12:21:22;6.20;99.90
37050;DHT22;22958;51.232;6.826;2023-03-05T12:24:01;6.30;99.90
37050;DHT22;22958;51.232;6.826;2023-03-05T12:31:59;6.30;99.90
37050;DHT22;22958;51.232;6.826;2023-03-05T12:47:40;6.20;99.90
37050;DHT22;22958;51.232;6.826;2023-03-05T12:52:54;6.10;99.90
37050;DHT22;22958;51.232;6.826;2023-03-05T12:55:55;6.20;99.90
37050;DHT22;22958;51.232;6.826;2023-03-05T12:58:42;6.00;99.90
37050;DHT22;22958;51.232;6.826;2023-03-05T13:04:04;6.40;99.90
37050;DHT22;22958;51.232;6.826;2023-03-05T13:06:36;6.20;99.90
37050;DHT22;22958;51.232;6.826;2023-03-05T13:09:14;5.90;99.90
37050;DHT22;22958;51.232;6.826;2023-03-05T13:11:42;6.10;99.90
37050;DHT22;22958;51.232;6.826;2023-03-05T13:14:35;6.30;99.90
37050;DHT22;22958;51.232;6.826;2023-03-05T13:17:02;6.40;99.90
37050;DHT22;22958;51.232;6.826;2023-03-05T13:19:48;6.20;99.90
37050;DHT22;22958;51.232;6.826;2023-03-05T13:22:14;6.20;99.90
37050;DHT22;22958;51.232;6.826;2023-03-05T13:24:39;6.40;99.90
37050;DHT22;22958;51.232;6.826;2023-03-05T13:27:27;6.50;99.90
37050;DHT22;22958;51.232;6.826;2023-03-05T13:29:54;6.20;99.90
37050;DHT22;22958;51.232;6.826;2023-03-05T13:32:28;6.00;99.90
37050;DHT22;22958;51.232;6.826;2023-03-05T13:34:56;6.10;99.90
37050;DHT22;22958;51.232;6.826;2023-03-05T13:37:33;6.10;99.90
37050;DHT22;22958;51.232;6.826;2023-03-05T13:40:12;6.00;99.90
37050;DHT22;22958;51.232;6.826;2023-03-05T13:42:39;6.00;99.90
37050;DHT22;22958;51.232;6.826;2023-03-05T13:45:19;6.10;99.90
37050;DHT22;22958;51.232;6.826;2023-03-05T13:47:59;6.10;99.90
37050;DHT22;22958;51.232;6.826;2023-03-05T13:50:30;6.20;99.90
37050;DHT22;22958;51.232;6.826;2023-03-05T13:53:16;6.30;99.90
37050;DHT22;22958;51.232;6.826;2023-03-05T13:55:45;6.30;99.90
37050;DHT22;22958;51.232;6.826;2023-03-05T14:01:14;6.20;99.90
37050;DHT22;22958;51.232;6.826;2023-03-05T14:03:41;6.30;99.90
37050;DHT22;22958;51.232;6.826;2023-03-05T14:06:10;6.40;99.90
37050;DHT22;22958;51.232;6.826;2023-03-05T14:08:36;6.20;99.90
37050;DHT22;22958;51.232;6.826;2023-03-05T14:11:13;6.20;99.90
37050;DHT22;22958;51.232;6.826;2023-03-05T14:13:40;6.30;99.90
37050;DHT22;22958;51.232;6.826;2023-03-05T14:16:07;6.20;99.90
37050;DHT22;22958;51.232;6.826;2023-03-05T14:18:33;6.20;99.90
37050;DHT22;22958;51.232;6.826;2023-03-05T14:21:02;6.20;99.90
37050;DHT22;22958;51.232;6.826;2023-03-05T14:28:53;6.40;99.90
37050;DHT22;22958;51.232;6.826;2023-03-05T14:31:20;6.40;99.90
37050;DHT22;22958;51.232;6.826;2023-03-05T14:33:47;6.60;99.90
37050;DHT22;22958;51.232;6.826;2023-03-05T14:36:13;6.60;99.90
37050;DHT22;22958;51.232;6.826;2023-03-05T14:38:40;6.60;99.90
37050;DHT22;22958;51.232;6.826;2023-03-05T14:44:00;6.50;99.90
37050;DHT22;22958;51.232;6.826;2023-03-05T14:46:26;6.40;99.90
37050;DHT22;22958;51.232;6.826;2023-03-05T14:48:52;6.40;99.90
37050;DHT22;22958;51.232;6.826;2023-03-05T14:51:19;6.40;99.90
37050;DHT22;22958;51.232;6.826;2023-03-05T14:53:46;6.40;99.90
37050;DHT22;22958;51.232;6.826;2023-03-05T14:56:27;6.40;99.90
37050;DHT22;22958;51.232;6.826;2023-03-05T14:58:53;6.30;99.90
37050;DHT22;22958;51.232;6.826;2023-03-05T15:01:19;6.10;99.90
37050;DHT22;22958;51.232;6.826;2023-03-05T15:03:44;6.10;99.90
37050;DHT22;22958;51.232;6.826;2023-03-05T15:06:20;6.10;99.90
37050;DHT22;22958;51.232;6.826;2023-03-05T15:08:46;6.20;99.90
37050;DHT22;22958;51.232;6.826;2023-03-05T15:11:12;6.20;99.90
37050;DHT22;22958;51.232;6.826;2023-03-05T15:13:38;6.20;99.90
37050;DHT22;22958;51.232;6.826;2023-03-05T15:16:04;6.20;99.90
37050;DHT22;22958;51.232;6.826;2023-03-05T15:18:30;6.20;99.90
37050;DHT22;22958;51.232;6.826;2023-03-05T15:20:56;6.20;99.90
37050;DHT22;22958;51.232;6.826;2023-03-05T15:23:22;6.20;99.90
37050;DHT22;22958;51.232;6.826;2023-03-05T15:25:48;6.00;99.90
37050;DHT22;22958;51.232;6.826;2023-03-05T15:28:14;5.90;99.90
37050;DHT22;22958;51.232;6.826;2023-03-05T15:30:43;6.10;99.90
37050;DHT22;22958;51.232;6.826;2023-03-05T15:33:11;6.10;99.90
37050;DHT22;22958;51.232;6.826;2023-03-05T15:35:37;6.20;99.90
37050;DHT22;22958;51.232;6.826;2023-03-05T15:38:03;6.10;99.90
37050;DHT22;22958;51.232;6.826;2023-03-05T15:40:29;6.10;99.90
37050;DHT22;22958;51.232;6.826;2023-03-05T15:42:56;6.00;99.90
37050;DHT22;22958;51.232;6.826;2023-03-05T15:45:22;6.00;99.90
37050;DHT22;22958;51.232;6.826;2023-03-05T15:47:48;6.00;99.90
37050;DHT22;22958;51.232;6.826;2023-03-05T15:50:14;6.00;99.90
37050;DHT22;22958;51.232;6.826;2023-03-05T15:52:40;6.10;99.90
37050;DHT22;22958;51.232;6.826;2023-03-05T15:55:06;6.10;99.90
37050;DHT22;22958;51.232;6.826;2023-03-05T15:57:35;6.10;99.90
37050;DHT22;22958;51.232;6.826;2023-03-05T16:00:04;6.00;99.90
37050;DHT22;22958;51.232;6.826;2023-03-05T16:02:30;6.00;99.90
37050;DHT22;22958;51.232;6.826;2023-03-05T16:04:55;5.90;99.90
37050;DHT22;22958;51.232;6.826;2023-03-05T16:07:21;5.90;99.90
37050;DHT22;22958;51.232;6.826;2023-03-05T16:09:48;5.90;99.90
37050;DHT22;22958;51.232;6.826;2023-03-05T16:12:19;6.00;99.90
37050;DHT22;22958;51.232;6.826;2023-03-05T16:14:47;6.10;99.90
37050;DHT22;22958;51.232;6.826;2023-03-05T16:17:14;6.10;99.90
37050;DHT22;22958;51.232;6.826;2023-03-05T16:19:42;6.10;99.90
37050;DHT22;22958;51.232;6.826;2023-03-05T16:22:08;6.10;99.90
37050;DHT22;22958;51.232;6.826;2023-03-05T16:24:34;6.00;99.90
37050;DHT22;22958;51.232;6.826;2023-03-05T16:26:59;6.00;99.90
37050;DHT22;22958;51.232;6.826;2023-03-05T16:29:25;6.00;99.90
37050;DHT22;22958;51.232;6.826;2023-03-05T16:31:53;6.00;99.90
37050;DHT22;22958;51.232;6.826;2023-03-05T16:34:19;6.00;99.90
37050;DHT22;22958;51.232;6.826;2023-03-05T16:36:49;6.00;99.90
37050;DHT22;22958;51.232;6.826;2023-03-05T16:39:17;5.90;99.90
37050;DHT22;22958;51.232;6.826;2023-03-05T16:41:43;5.80;99.90
37050;DHT22;22958;51.232;6.826;2023-03-05T16:44:09;5.80;99.90
37050;DHT22;22958;51.232;6.826;2023-03-05T16:46:35;5.80;99.90
37050;DHT22;22958;51.232;6.826;2023-03-05T16:49:02;5.80;99.90
37050;DHT22;22958;51.232;6.826;2023-03-05T16:51:28;5.80;99.90
37050;DHT22;22958;51.232;6.826;2023-03-05T16:53:53;5.80;99.90
37050;DHT22;22958;51.232;6.826;2023-03-05T16:56:19;5.70;99.90
37050;DHT22;22958;51.232;6.826;2023-03-05T16:58:45;5.80;99.90
37050;DHT22;22958;51.232;6.826;2023-03-05T17:01:14;5.80;99.90
37050;DHT22;22958;51.232;6.826;2023-03-05T17:03:40;5.70;99.90
37050;DHT22;22958;51.232;6.826;2023-03-05T17:06:12;5.70;99.90
37050;DHT22;22958;51.232;6.826;2023-03-05T17:08:39;5.70;99.90
37050;DHT22;22958;51.232;6.826;2023-03-05T17:11:05;5.70;99.90
37050;DHT22;22958;51.232;6.826;2023-03-05T17:13:30;5.70;99.90
37050;DHT22;22958;51.232;6.826;2023-03-05T17:15:56;5.80;99.90
37050;DHT22;22958;51.232;6.826;2023-03-05T17:18:21;5.70;99.90